sensor_id;sensor_type;location;lat;lon;timestamp;pressure;altitude;pressure_sealevel;temperature;humidity
76858;BME280;65830;0.000;0.000;2023-07-29T00:02:16;99406.41;;;21.89;36.20
76858;BME280;65830;0.000;0.000;2023-07-29T00:04:42;99409.94;;;21.89;36.00
76858;BME280;65830;0.000;0.000;2023-07-29T00:07:07;99405.00;;;21.79;36.22
76858;BME280;65830;0.000;0.000;2023-07-29T00:09:33;99407.97;;;21.71;36.21
76858;BME280;65830;0.000;0.000;2023-07-29T00:11:58;99404.84;;;21.74;36.31
76858;BME280;65830;0.000;0.000;2023-07-29T00:14:23;99397.84;;;21.92;37.05
76858;BME280;65830;0.000;0.000;2023-07-29T00:16:49;99395.06;;;22.05;36.28
76858;BME280;65830;0.000;0.000;2023-07-29T00:19:14;99397.56;;;22.07;36.55
76858;BME280;65830;0.000;0.000;2023-07-29T00:21:40;99393.44;;;21.97;37.19
76858;BME280;65830;0.000;0.000;2023-07-29T00:24:06;99400.53;;;21.98;37.21
76858;BME280;65830;0.000;0.000;2023-07-29T00:26:31;99400.47;;;22.05;37.30
76858;BME280;65830;0.000;0.000;2023-07-29T00:28:57;99408.28;;;22.13;36.71
76858;BME280;65830;0.000;0.000;2023-07-29T00:31:23;99411.13;;;22.25;37.49
76858;BME280;65830;0.000;0.000;2023-07-29T00:33:50;99404.41;;;22.34;36.06
76858;BME280;65830;0.000;0.000;2023-07-29T00:36:15;99408.94;;;22.40;36.07
76858;BME280;65830;0.000;0.000;2023-07-29T00:38:41;99411.31;;;22.24;36.71
76858;BME280;65830;0.000;0.000;2023-07-29T00:41:06;99414.97;;;22.11;36.73
76858;BME280;65830;0.000;0.000;2023-07-29T00:43:32;99410.94;;;21.95;37.07
76858;BME280;65830;0.000;0.000;2023-07-29T00:45:57;99412.81;;;21.63;38.74
76858;BME280;65830;0.000;0.000;2023-07-29T00:48:23;99411.88;;;21.44;39.34
76858;BME280;65830;0.000;0.000;2023-07-29T00:50:49;99412.63;;;21.57;39.10
76858;BME280;65830;0.000;0.000;2023-07-29T00:53:15;99409.72;;;21.59;39.37
76858;BME280;65830;0.000;0.000;2023-07-29T00:55:41;99405.97;;;21.60;39.40
76858;BME280;65830;0.000;0.000;2023-07-29T00:58:07;99405.81;;;21.48;39.90
76858;BME280;65830;0.000;0.000;2023-07-29T01:00:33;99404.63;;;21.37;40.36
76858;BME280;65830;0.000;0.000;2023-07-29T01:02:58;99393.22;;;21.29;40.79
76858;BME280;65830;0.000;0.000;2023-07-29T01:05:25;99389.28;;;21.31;40.79
76858;BME280;65830;0.000;0.000;2023-07-29T01:07:59;99397.53;;;21.50;39.99
76858;BME280;65830;0.000;0.000;2023-07-29T01:13:29;99398.19;;;21.45;40.24
76858;BME280;65830;0.000;0.000;2023-07-29T01:16:00;99396.84;;;21.54;40.66
76858;BME280;65830;0.000;0.000;2023-07-29T01:18:31;99384.88;;;21.44;40.76
76858;BME280;65830;0.000;0.000;2023-07-29T01:20:58;99394.41;;;21.53;40.83
76858;BME280;65830;0.000;0.000;2023-07-29T01:23:26;99401.19;;;21.62;40.79
76858;BME280;65830;0.000;0.000;2023-07-29T01:25:51;99400.16;;;21.63;40.10
76858;BME280;65830;0.000;0.000;2023-07-29T01:28:17;99402.88;;;21.56;40.10
76858;BME280;65830;0.000;0.000;2023-07-29T01:30:42;99402.88;;;21.56;40.24
76858;BME280;65830;0.000;0.000;2023-07-29T01:33:14;99394.16;;;21.54;40.25
76858;BME280;65830;0.000;0.000;2023-07-29T01:35:52;99396.28;;;21.46;40.29
76858;BME280;65830;0.000;0.000;2023-07-29T01:38:21;99393.63;;;21.32;40.90
76858;BME280;65830;0.000;0.000;2023-07-29T01:40:50;99408.59;;;21.35;40.79
76858;BME280;65830;0.000;0.000;2023-07-29T01:43:16;99410.69;;;21.26;40.75
76858;BME280;65830;0.000;0.000;2023-07-29T01:45:44;99404.47;;;21.26;41.17
76858;BME280;65830;0.000;0.000;2023-07-29T01:48:09;99403.59;;;21.32;41.33
76858;BME280;65830;0.000;0.000;2023-07-29T01:50:35;99404.41;;;21.39;41.21
76858;BME280;65830;0.000;0.000;2023-07-29T01:53:00;99407.72;;;21.41;41.25
76858;BME280;65830;0.000;0.000;2023-07-29T01:55:26;99416.16;;;21.06;40.92
76858;BME280;65830;0.000;0.000;2023-07-29T01:57:53;99412.44;;;21.00;41.55
76858;BME280;65830;0.000;0.000;2023-07-29T02:00:19;99412.25;;;21.02;41.58
76858;BME280;65830;0.000;0.000;2023-07-29T02:02:45;99410.31;;;21.16;41.64
76858;BME280;65830;0.000;0.000;2023-07-29T02:05:10;99418.03;;;21.06;41.55
76858;BME280;65830;0.000;0.000;2023-07-29T02:07:36;99414.75;;;20.90;41.82
76858;BME280;65830;0.000;0.000;2023-07-29T02:10:02;99421.38;;;20.94;41.87
76858;BME280;65830;0.000;0.000;2023-07-29T02:12:27;99422.03;;;20.83;42.24
76858;BME280;65830;0.000;0.000;2023-07-29T02:14:53;99432.03;;;20.62;42.97
76858;BME280;65830;0.000;0.000;2023-07-29T02:17:18;99437.22;;;20.57;43.19
76858;BME280;65830;0.000;0.000;2023-07-29T02:19:44;99437.22;;;20.57;43.35
76858;BME280;65830;0.000;0.000;2023-07-29T02:22:10;99438.44;;;20.55;43.73
76858;BME280;65830;0.000;0.000;2023-07-29T02:24:36;99436.19;;;20.52;44.06
76858;BME280;65830;0.000;0.000;2023-07-29T02:27:01;99432.03;;;20.56;44.11
76858;BME280;65830;0.000;0.000;2023-07-29T02:29:27;99428.72;;;20.40;44.22
76858;BME280;65830;0.000;0.000;2023-07-29T02:31:52;99424.78;;;20.36;44.65
76858;BME280;65830;0.000;0.000;2023-07-29T02:34:18;99428.09;;;20.38;44.79
76858;BME280;65830;0.000;0.000;2023-07-29T02:36:43;99422.28;;;20.41;44.86
76858;BME280;65830;0.000;0.000;2023-07-29T02:39:10;99426.44;;;20.51;44.74
76858;BME280;65830;0.000;0.000;2023-07-29T02:41:36;99428.94;;;20.32;44.72
76858;BME280;65830;0.000;0.000;2023-07-29T02:44:02;99437.03;;;20.32;45.00
76858;BME280;65830;0.000;0.000;2023-07-29T02:46:28;99436.00;;;20.40;45.15
76858;BME280;65830;0.000;0.000;2023-07-29T02:48:53;99438.44;;;20.41;45.24
76858;BME280;65830;0.000;0.000;2023-07-29T02:51:19;99436.78;;;20.47;45.17
76858;BME280;65830;0.000;0.000;2023-07-29T02:53:44;99437.22;;;20.64;45.34
76858;BME280;65830;0.000;0.000;2023-07-29T02:56:10;99435.56;;;20.70;44.35
76858;BME280;65830;0.000;0.000;2023-07-29T02:58:37;99438.03;;;20.51;44.69
76858;BME280;65830;0.000;0.000;2023-07-29T03:01:03;99427.47;;;20.43;45.38
76858;BME280;65830;0.000;0.000;2023-07-29T03:03:30;99435.56;;;20.43;45.03
76858;BME280;65830;0.000;0.000;2023-07-29T03:06:03;99438.28;;;20.30;45.45
76858;BME280;65830;0.000;0.000;2023-07-29T03:08:29;99441.78;;;20.23;45.17
76858;BME280;65830;0.000;0.000;2023-07-29T03:10:55;99447.78;;;20.26;45.18
76858;BME280;65830;0.000;0.000;2023-07-29T03:13:21;99441.97;;;20.15;44.84
76858;BME280;65830;0.000;0.000;2023-07-29T03:15:46;99450.50;;;20.19;45.35
76858;BME280;65830;0.000;0.000;2023-07-29T03:18:12;99441.78;;;20.10;45.32
76858;BME280;65830;0.000;0.000;2023-07-29T03:20:38;99440.31;;;20.01;45.58
76858;BME280;65830;0.000;0.000;2023-07-29T03:23:03;99447.56;;;20.07;45.45
76858;BME280;65830;0.000;0.000;2023-07-29T03:25:29;99450.88;;;19.96;45.89
76858;BME280;65830;0.000;0.000;2023-07-29T03:27:54;99449.63;;;19.92;46.01
76858;BME280;65830;0.000;0.000;2023-07-29T03:30:21;99452.44;;;19.57;47.10
76858;BME280;65830;0.000;0.000;2023-07-29T03:32:47;99456.56;;;19.53;47.47
76858;BME280;65830;0.000;0.000;2023-07-29T03:35:13;99461.94;;;19.53;47.44
76858;BME280;65830;0.000;0.000;2023-07-29T03:37:38;99463.00;;;19.65;47.73
76858;BME280;65830;0.000;0.000;2023-07-29T03:40:05;99462.38;;;19.56;47.66
76858;BME280;65830;0.000;0.000;2023-07-29T03:42:30;99467.13;;;19.61;47.82
76858;BME280;65830;0.000;0.000;2023-07-29T03:44:56;99470.88;;;19.67;47.47
76858;BME280;65830;0.000;0.000;2023-07-29T03:47:21;99470.63;;;19.55;47.73
76858;BME280;65830;0.000;0.000;2023-07-29T03:49:47;99476.84;;;19.62;47.66
76858;BME280;65830;0.000;0.000;2023-07-29T03:52:14;99469.41;;;19.64;47.66
76858;BME280;65830;0.000;0.000;2023-07-29T03:54:40;99476.41;;;19.52;48.05
76858;BME280;65830;0.000;0.000;2023-07-29T03:57:06;99482.88;;;19.64;48.07
76858;BME280;65830;0.000;0.000;2023-07-29T03:59:31;99479.81;;;19.74;47.70
76858;BME280;65830;0.000;0.000;2023-07-29T04:01:57;99491.38;;;19.68;47.69
76858;BME280;65830;0.000;0.000;2023-07-29T04:04:22;99489.28;;;19.56;48.03
76858;BME280;65830;0.000;0.000;2023-07-29T04:06:48;99487.34;;;19.43;48.12
76858;BME280;65830;0.000;0.000;2023-07-29T04:09:13;99487.59;;;19.49;48.23
76858;BME280;65830;0.000;0.000;2023-07-29T04:11:39;99491.09;;;19.42;48.55
76858;BME280;65830;0.000;0.000;2023-07-29T04:14:04;99487.41;;;19.57;48.33
76858;BME280;65830;0.000;0.000;2023-07-29T04:16:30;99494.44;;;19.51;48.60
76858;BME280;65830;0.000;0.000;2023-07-29T04:18:56;99495.06;;;19.60;48.54
76858;BME280;65830;0.000;0.000;2023-07-29T04:21:21;99502.13;;;19.68;48.54
76858;BME280;65830;0.000;0.000;2023-07-29T04:23:47;99498.19;;;19.63;48.16
76858;BME280;65830;0.000;0.000;2023-07-29T04:26:12;99503.13;;;19.60;48.24
76858;BME280;65830;0.000;0.000;2023-07-29T04:28:38;99493.16;;;19.47;48.47
76858;BME280;65830;0.000;0.000;2023-07-29T04:31:03;99498.31;;;19.42;48.72
76858;BME280;65830;0.000;0.000;2023-07-29T04:33:29;99507.00;;;19.37;48.78
76858;BME280;65830;0.000;0.000;2023-07-29T04:35:55;99500.25;;;19.55;48.57
76858;BME280;65830;0.000;0.000;2023-07-29T04:38:20;99507.69;;;19.59;48.43
76858;BME280;65830;0.000;0.000;2023-07-29T04:40:48;99509.56;;;19.59;48.60
76858;BME280;65830;0.000;0.000;2023-07-29T04:43:13;99508.75;;;19.65;48.66
76858;BME280;65830;0.000;0.000;2023-07-29T04:45:43;99498.47;;;19.75;48.24
76858;BME280;65830;0.000;0.000;2023-07-29T04:48:08;99507.38;;;19.76;47.77
76858;BME280;65830;0.000;0.000;2023-07-29T04:50:34;99505.72;;;19.75;48.36
76858;BME280;65830;0.000;0.000;2023-07-29T04:52:59;99490.63;;;19.87;47.98
76858;BME280;65830;0.000;0.000;2023-07-29T04:55:25;99497.69;;;19.88;47.77
76858;BME280;65830;0.000;0.000;2023-07-29T04:57:50;99506.41;;;19.90;48.06
76858;BME280;65830;0.000;0.000;2023-07-29T05:00:16;99495.44;;;19.98;48.10
76858;BME280;65830;0.000;0.000;2023-07-29T05:02:41;99501.41;;;19.94;47.87
76858;BME280;65830;0.000;0.000;2023-07-29T05:05:07;99507.03;;;20.06;47.89
76858;BME280;65830;0.000;0.000;2023-07-29T05:07:33;99503.75;;;20.17;47.95
76858;BME280;65830;0.000;0.000;2023-07-29T05:09:58;99501.66;;;20.19;47.59
76858;BME280;65830;0.000;0.000;2023-07-29T05:12:24;99513.50;;;20.38;48.00
76858;BME280;65830;0.000;0.000;2023-07-29T05:14:49;99512.69;;;20.44;47.00
76858;BME280;65830;0.000;0.000;2023-07-29T05:17:15;99509.38;;;20.42;46.77
76858;BME280;65830;0.000;0.000;2023-07-29T05:19:41;99509.16;;;20.43;46.73
76858;BME280;65830;0.000;0.000;2023-07-29T05:22:07;99516.19;;;20.51;46.42
76858;BME280;65830;0.000;0.000;2023-07-29T05:24:32;99523.06;;;20.54;45.25
76858;BME280;65830;0.000;0.000;2023-07-29T05:26:57;99520.56;;;20.52;45.51
76858;BME280;65830;0.000;0.000;2023-07-29T05:29:23;99518.09;;;20.57;46.10
76858;BME280;65830;0.000;0.000;2023-07-29T05:31:49;99520.13;;;20.55;46.07
76858;BME280;65830;0.000;0.000;2023-07-29T05:34:14;99516.88;;;20.60;45.24
76858;BME280;65830;0.000;0.000;2023-07-29T05:36:40;99524.06;;;20.53;44.87
76858;BME280;65830;0.000;0.000;2023-07-29T05:39:06;99526.78;;;20.53;45.33
76858;BME280;65830;0.000;0.000;2023-07-29T05:41:32;99529.72;;;20.65;45.51
76858;BME280;65830;0.000;0.000;2023-07-29T05:43:58;99531.78;;;20.82;45.39
76858;BME280;65830;0.000;0.000;2023-07-29T05:46:23;99529.72;;;20.91;45.49
76858;BME280;65830;0.000;0.000;2023-07-29T05:48:49;99530.94;;;20.89;45.35
76858;BME280;65830;0.000;0.000;2023-07-29T05:51:14;99535.91;;;20.98;45.38
76858;BME280;65830;0.000;0.000;2023-07-29T05:53:40;99531.97;;;21.08;44.81
76858;BME280;65830;0.000;0.000;2023-07-29T05:56:05;99528.81;;;21.17;44.81
76858;BME280;65830;0.000;0.000;2023-07-29T05:58:31;99527.97;;;21.23;44.18
76858;BME280;65830;0.000;0.000;2023-07-29T06:00:57;99528.78;;;21.24;44.52
76858;BME280;65830;0.000;0.000;2023-07-29T06:03:22;99525.44;;;21.35;44.29
76858;BME280;65830;0.000;0.000;2023-07-29T06:05:50;99520.84;;;21.42;43.75
76858;BME280;65830;0.000;0.000;2023-07-29T06:08:15;99521.06;;;21.48;44.06
76858;BME280;65830;0.000;0.000;2023-07-29T06:10:41;99525.22;;;21.50;43.75
76858;BME280;65830;0.000;0.000;2023-07-29T06:13:06;99523.13;;;21.59;43.73
76858;BME280;65830;0.000;0.000;2023-07-29T06:15:32;99524.50;;;21.68;43.46
76858;BME280;65830;0.000;0.000;2023-07-29T06:17:58;99528.63;;;21.77;42.53
76858;BME280;65830;0.000;0.000;2023-07-29T06:20:23;99528.59;;;21.84;43.11
76858;BME280;65830;0.000;0.000;2023-07-29T06:22:49;99534.59;;;21.93;43.01
76858;BME280;65830;0.000;0.000;2023-07-29T06:25:14;99532.25;;;22.03;42.12
76858;BME280;65830;0.000;0.000;2023-07-29T06:27:40;99529.13;;;21.99;41.63
76858;BME280;65830;0.000;0.000;2023-07-29T06:30:05;99525.56;;;22.06;42.03
76858;BME280;65830;0.000;0.000;2023-07-29T06:32:31;99530.69;;;22.14;41.67
76858;BME280;65830;0.000;0.000;2023-07-29T06:34:57;99520.69;;;22.21;41.45
76858;BME280;65830;0.000;0.000;2023-07-29T06:37:22;99525.03;;;22.29;41.16
76858;BME280;65830;0.000;0.000;2023-07-29T06:39:47;99521.25;;;22.36;41.61
76858;BME280;65830;0.000;0.000;2023-07-29T06:42:13;99518.88;;;22.47;41.06
76858;BME280;65830;0.000;0.000;2023-07-29T06:44:39;99518.59;;;22.55;40.66
76858;BME280;65830;0.000;0.000;2023-07-29T06:47:05;99511.47;;;22.60;40.22
76858;BME280;65830;0.000;0.000;2023-07-29T06:49:30;99522.59;;;22.77;39.81
76858;BME280;65830;0.000;0.000;2023-07-29T06:51:56;99519.81;;;22.84;40.46
76858;BME280;65830;0.000;0.000;2023-07-29T06:54:24;99517.78;;;22.98;39.59
76858;BME280;65830;0.000;0.000;2023-07-29T06:56:49;99522.66;;;23.14;39.69
76858;BME280;65830;0.000;0.000;2023-07-29T06:59:14;99525.91;;;23.23;39.54
76858;BME280;65830;0.000;0.000;2023-07-29T07:01:40;99520.16;;;23.13;39.80
76858;BME280;65830;0.000;0.000;2023-07-29T07:04:05;99523.25;;;23.16;39.97
76858;BME280;65830;0.000;0.000;2023-07-29T07:06:31;99515.81;;;23.30;39.97
76858;BME280;65830;0.000;0.000;2023-07-29T07:08:56;99514.25;;;23.41;40.03
76858;BME280;65830;0.000;0.000;2023-07-29T07:11:22;99516.66;;;23.49;39.52
76858;BME280;65830;0.000;0.000;2023-07-29T07:13:47;99513.84;;;23.56;39.80
76858;BME280;65830;0.000;0.000;2023-07-29T07:16:13;99510.44;;;23.60;39.30
76858;BME280;65830;0.000;0.000;2023-07-29T07:18:38;99500.97;;;23.70;39.63
76858;BME280;65830;0.000;0.000;2023-07-29T07:21:04;99494.84;;;23.74;39.22
76858;BME280;65830;0.000;0.000;2023-07-29T07:23:29;99493.13;;;23.80;39.37
76858;BME280;65830;0.000;0.000;2023-07-29T07:25:54;99496.38;;;23.89;39.00
76858;BME280;65830;0.000;0.000;2023-07-29T07:28:20;99497.44;;;23.99;39.14
76858;BME280;65830;0.000;0.000;2023-07-29T07:30:45;99499.50;;;24.16;38.92
76858;BME280;65830;0.000;0.000;2023-07-29T07:33:11;99480.22;;;24.24;38.79
76858;BME280;65830;0.000;0.000;2023-07-29T07:35:36;99482.22;;;24.29;38.43
76858;BME280;65830;0.000;0.000;2023-07-29T07:38:02;99481.72;;;24.32;38.41
76858;BME280;65830;0.000;0.000;2023-07-29T07:40:30;99479.03;;;24.44;38.39
76858;BME280;65830;0.000;0.000;2023-07-29T07:42:56;99476.69;;;24.47;38.05
76858;BME280;65830;0.000;0.000;2023-07-29T07:45:21;99476.84;;;24.52;38.09
76858;BME280;65830;0.000;0.000;2023-07-29T07:47:46;99476.97;;;24.57;37.92
76858;BME280;65830;0.000;0.000;2023-07-29T07:50:12;99472.63;;;24.68;38.10
76858;BME280;65830;0.000;0.000;2023-07-29T07:52:39;99472.13;;;24.71;38.13
76858;BME280;65830;0.000;0.000;2023-07-29T07:55:04;99469.06;;;24.80;38.11
76858;BME280;65830;0.000;0.000;2023-07-29T07:57:30;99473.19;;;24.94;38.09
76858;BME280;65830;0.000;0.000;2023-07-29T07:59:56;99465.41;;;24.97;37.21
76858;BME280;65830;0.000;0.000;2023-07-29T08:02:38;99465.63;;;24.96;37.17
76858;BME280;65830;0.000;0.000;2023-07-29T08:05:11;99455.72;;;25.02;37.67
76858;BME280;65830;0.000;0.000;2023-07-29T08:07:36;99459.00;;;25.15;37.37
76858;BME280;65830;0.000;0.000;2023-07-29T08:10:02;99451.91;;;25.26;37.17
76858;BME280;65830;0.000;0.000;2023-07-29T08:12:27;99444.13;;;25.30;36.63
76858;BME280;65830;0.000;0.000;2023-07-29T08:14:53;99448.34;;;25.38;36.61
76858;BME280;65830;0.000;0.000;2023-07-29T08:17:18;99444.41;;;25.45;36.69
76858;BME280;65830;0.000;0.000;2023-07-29T08:19:44;99441.19;;;25.48;36.88
76858;BME280;65830;0.000;0.000;2023-07-29T08:22:09;99438.38;;;25.55;36.13
76858;BME280;65830;0.000;0.000;2023-07-29T08:24:34;99441.75;;;25.62;36.32
76858;BME280;65830;0.000;0.000;2023-07-29T08:27:00;99442.56;;;25.63;36.03
76858;BME280;65830;0.000;0.000;2023-07-29T08:29:26;99438.22;;;25.62;36.13
76858;BME280;65830;0.000;0.000;2023-07-29T08:31:51;99436.41;;;25.67;36.05
76858;BME280;65830;0.000;0.000;2023-07-29T08:34:17;99434.63;;;25.73;35.75
76858;BME280;65830;0.000;0.000;2023-07-29T08:36:42;99429.13;;;25.85;35.43
76858;BME280;65830;0.000;0.000;2023-07-29T08:39:08;99429.44;;;25.88;35.09
76858;BME280;65830;0.000;0.000;2023-07-29T08:41:41;99426.41;;;25.85;35.09
76858;BME280;65830;0.000;0.000;2023-07-29T08:46:37;99419.63;;;25.99;35.21
76858;BME280;65830;0.000;0.000;2023-07-29T08:49:03;99411.03;;;26.07;34.25
76858;BME280;65830;0.000;0.000;2023-07-29T08:51:29;99411.63;;;26.26;33.99
76858;BME280;65830;0.000;0.000;2023-07-29T08:53:56;99408.16;;;26.31;32.91
76858;BME280;65830;0.000;0.000;2023-07-29T08:56:23;99405.97;;;26.50;33.11
76858;BME280;65830;0.000;0.000;2023-07-29T08:58:49;99411.34;;;26.45;33.17
76858;BME280;65830;0.000;0.000;2023-07-29T09:01:14;99397.09;;;26.54;33.45
76858;BME280;65830;0.000;0.000;2023-07-29T09:03:40;99405.25;;;26.54;34.71
76858;BME280;65830;0.000;0.000;2023-07-29T09:06:06;99401.78;;;26.59;33.81
76858;BME280;65830;0.000;0.000;2023-07-29T09:08:32;99400.72;;;26.60;33.51
76858;BME280;65830;0.000;0.000;2023-07-29T09:10:58;99402.00;;;26.58;33.50
76858;BME280;65830;0.000;0.000;2023-07-29T09:13:24;99400.16;;;26.58;33.21
76858;BME280;65830;0.000;0.000;2023-07-29T09:15:53;99402.25;;;26.73;33.85
76858;BME280;65830;0.000;0.000;2023-07-29T09:18:19;99394.41;;;26.77;34.42
76858;BME280;65830;0.000;0.000;2023-07-29T09:20:48;99394.78;;;27.07;34.28
76858;BME280;65830;0.000;0.000;2023-07-29T09:23:14;99383.78;;;26.97;34.67
76858;BME280;65830;0.000;0.000;2023-07-29T09:25:39;99381.59;;;26.94;33.27
76858;BME280;65830;0.000;0.000;2023-07-29T09:28:14;99383.16;;;26.90;34.21
76858;BME280;65830;0.000;0.000;2023-07-29T09:30:41;99387.84;;;27.17;32.64
76858;BME280;65830;0.000;0.000;2023-07-29T09:33:08;99376.88;;;27.11;31.80
76858;BME280;65830;0.000;0.000;2023-07-29T09:35:34;99374.16;;;27.11;31.55
76858;BME280;65830;0.000;0.000;2023-07-29T09:38:00;99358.69;;;27.17;30.08
76858;BME280;65830;0.000;0.000;2023-07-29T09:40:26;99359.81;;;27.21;30.01
76858;BME280;65830;0.000;0.000;2023-07-29T09:42:52;99359.44;;;27.29;29.07
76858;BME280;65830;0.000;0.000;2023-07-29T09:45:25;99353.03;;;27.46;28.82
76858;BME280;65830;0.000;0.000;2023-07-29T09:47:54;99351.38;;;27.45;28.53
76858;BME280;65830;0.000;0.000;2023-07-29T09:50:25;99349.19;;;27.42;28.89
76858;BME280;65830;0.000;0.000;2023-07-29T09:52:51;99343.22;;;27.45;28.37
76858;BME280;65830;0.000;0.000;2023-07-29T09:55:22;99352.22;;;27.45;28.10
76858;BME280;65830;0.000;0.000;2023-07-29T09:57:58;99356.44;;;27.58;27.48
76858;BME280;65830;0.000;0.000;2023-07-29T10:00:29;99351.78;;;27.59;27.92
76858;BME280;65830;0.000;0.000;2023-07-29T10:02:57;99343.97;;;27.67;28.15
76858;BME280;65830;0.000;0.000;2023-07-29T10:05:22;99343.66;;;27.64;28.55
76858;BME280;65830;0.000;0.000;2023-07-29T10:07:51;99339.25;;;27.58;28.47
76858;BME280;65830;0.000;0.000;2023-07-29T10:10:16;99340.69;;;27.65;29.12
76858;BME280;65830;0.000;0.000;2023-07-29T10:12:42;99334.19;;;27.71;28.58
76858;BME280;65830;0.000;0.000;2023-07-29T10:15:08;99336.13;;;27.76;28.53
76858;BME280;65830;0.000;0.000;2023-07-29T10:17:34;99332.84;;;27.74;28.49
76858;BME280;65830;0.000;0.000;2023-07-29T10:20:00;99335.25;;;27.98;27.67
76858;BME280;65830;0.000;0.000;2023-07-29T10:22:32;99328.50;;;28.05;27.66
76858;BME280;65830;0.000;0.000;2023-07-29T10:24:59;99328.13;;;28.34;27.92
76858;BME280;65830;0.000;0.000;2023-07-29T10:27:26;99324.06;;;28.42;27.67
76858;BME280;65830;0.000;0.000;2023-07-29T10:29:53;99338.09;;;28.56;27.09
76858;BME280;65830;0.000;0.000;2023-07-29T10:32:20;99329.56;;;28.47;27.30
76858;BME280;65830;0.000;0.000;2023-07-29T10:34:49;99319.56;;;28.63;26.08
76858;BME280;65830;0.000;0.000;2023-07-29T10:37:14;99319.88;;;28.66;26.50
76858;BME280;65830;0.000;0.000;2023-07-29T10:39:40;99311.91;;;28.60;26.47
76858;BME280;65830;0.000;0.000;2023-07-29T10:42:06;99308.31;;;28.54;27.10
76858;BME280;65830;0.000;0.000;2023-07-29T10:49:47;99301.31;;;28.74;26.75
76858;BME280;65830;0.000;0.000;2023-07-29T10:52:13;99297.84;;;28.99;25.47
76858;BME280;65830;0.000;0.000;2023-07-29T10:57:08;99284.53;;;29.23;25.37
76858;BME280;65830;0.000;0.000;2023-07-29T10:59:37;99290.84;;;29.18;25.40
76858;BME280;65830;0.000;0.000;2023-07-29T11:02:03;99283.16;;;29.10;25.25
76858;BME280;65830;0.000;0.000;2023-07-29T11:04:45;99287.50;;;29.06;25.22
76858;BME280;65830;0.000;0.000;2023-07-29T11:09:38;99268.72;;;29.35;25.93
76858;BME280;65830;0.000;0.000;2023-07-29T11:12:05;99278.00;;;29.55;25.66
76858;BME280;65830;0.000;0.000;2023-07-29T11:14:30;99272.00;;;29.68;25.09
76858;BME280;65830;0.000;0.000;2023-07-29T11:16:56;99276.66;;;29.67;25.68
76858;BME280;65830;0.000;0.000;2023-07-29T11:19:23;99261.91;;;29.63;24.84
76858;BME280;65830;0.000;0.000;2023-07-29T11:21:48;99262.13;;;29.67;25.32
76858;BME280;65830;0.000;0.000;2023-07-29T11:24:17;99261.56;;;30.06;24.58
76858;BME280;65830;0.000;0.000;2023-07-29T11:26:46;99253.13;;;29.97;24.24
76858;BME280;65830;0.000;0.000;2023-07-29T11:29:12;99260.97;;;30.24;25.63
76858;BME280;65830;0.000;0.000;2023-07-29T11:31:40;99262.34;;;30.32;24.95
76858;BME280;65830;0.000;0.000;2023-07-29T11:34:09;99254.41;;;30.31;23.96
76858;BME280;65830;0.000;0.000;2023-07-29T11:36:34;99248.13;;;30.35;24.29
76858;BME280;65830;0.000;0.000;2023-07-29T11:38:59;99247.50;;;30.48;24.59
76858;BME280;65830;0.000;0.000;2023-07-29T11:41:25;99255.38;;;30.65;24.31
76858;BME280;65830;0.000;0.000;2023-07-29T11:43:50;99252.81;;;30.79;23.68
76858;BME280;65830;0.000;0.000;2023-07-29T11:46:20;99247.75;;;31.07;24.11
76858;BME280;65830;0.000;0.000;2023-07-29T11:48:45;99234.38;;;31.40;23.77
76858;BME280;65830;0.000;0.000;2023-07-29T11:51:10;99236.81;;;31.76;23.09
76858;BME280;65830;0.000;0.000;2023-07-29T11:53:37;99241.66;;;31.84;23.01
76858;BME280;65830;0.000;0.000;2023-07-29T11:56:02;99236.34;;;32.22;22.36
76858;BME280;65830;0.000;0.000;2023-07-29T11:58:28;99225.47;;;32.12;21.59
76858;BME280;65830;0.000;0.000;2023-07-29T12:00:54;99229.81;;;32.37;22.50
76858;BME280;65830;0.000;0.000;2023-07-29T12:03:19;99217.06;;;32.89;21.72
76858;BME280;65830;0.000;0.000;2023-07-29T12:05:45;99223.28;;;33.33;20.86
76858;BME280;65830;0.000;0.000;2023-07-29T12:08:11;99221.00;;;33.54;21.21
76858;BME280;65830;0.000;0.000;2023-07-29T12:10:36;99218.34;;;33.95;20.53
76858;BME280;65830;0.000;0.000;2023-07-29T12:13:02;99223.84;;;34.09;19.39
76858;BME280;65830;0.000;0.000;2023-07-29T12:15:28;99226.31;;;34.52;20.52
76858;BME280;65830;0.000;0.000;2023-07-29T12:17:55;99217.81;;;34.62;18.97
76858;BME280;65830;0.000;0.000;2023-07-29T12:20:21;99222.34;;;34.95;19.55
76858;BME280;65830;0.000;0.000;2023-07-29T12:22:51;99217.78;;;35.13;19.25
76858;BME280;65830;0.000;0.000;2023-07-29T12:25:20;99205.00;;;35.39;19.29
76858;BME280;65830;0.000;0.000;2023-07-29T12:27:45;99203.91;;;35.72;18.71
76858;BME280;65830;0.000;0.000;2023-07-29T12:30:11;99201.44;;;36.02;18.11
76858;BME280;65830;0.000;0.000;2023-07-29T12:32:46;99198.81;;;36.36;17.65
76858;BME280;65830;0.000;0.000;2023-07-29T12:35:12;99200.19;;;36.74;16.46
76858;BME280;65830;0.000;0.000;2023-07-29T12:37:37;99196.94;;;36.98;17.11
76858;BME280;65830;0.000;0.000;2023-07-29T12:40:04;99193.50;;;37.27;16.17
76858;BME280;65830;0.000;0.000;2023-07-29T12:42:30;99188.06;;;37.57;17.04
76858;BME280;65830;0.000;0.000;2023-07-29T12:44:55;99186.66;;;37.89;14.71
76858;BME280;65830;0.000;0.000;2023-07-29T12:47:21;99184.91;;;37.85;15.92
76858;BME280;65830;0.000;0.000;2023-07-29T12:49:46;99175.88;;;37.97;17.48
76858;BME280;65830;0.000;0.000;2023-07-29T12:52:12;99183.66;;;38.12;17.17
76858;BME280;65830;0.000;0.000;2023-07-29T12:54:37;99181.38;;;38.14;16.07
76858;BME280;65830;0.000;0.000;2023-07-29T12:57:02;99179.88;;;38.17;15.12
76858;BME280;65830;0.000;0.000;2023-07-29T12:59:28;99182.56;;;37.95;14.92
76858;BME280;65830;0.000;0.000;2023-07-29T13:01:53;99184.75;;;37.81;15.33
76858;BME280;65830;0.000;0.000;2023-07-29T13:04:19;99185.03;;;37.41;16.25
76858;BME280;65830;0.000;0.000;2023-07-29T13:06:44;99174.81;;;37.15;16.54
76858;BME280;65830;0.000;0.000;2023-07-29T13:09:10;99185.72;;;36.86;17.38
76858;BME280;65830;0.000;0.000;2023-07-29T13:11:35;99183.28;;;36.75;15.58
76858;BME280;65830;0.000;0.000;2023-07-29T13:14:01;99187.50;;;36.64;16.38
76858;BME280;65830;0.000;0.000;2023-07-29T13:16:27;99183.75;;;36.86;17.61
76858;BME280;65830;0.000;0.000;2023-07-29T13:18:53;99184.75;;;36.99;15.27
76858;BME280;65830;0.000;0.000;2023-07-29T13:21:18;99187.38;;;37.13;16.42